Sea Pearl — SVCM6 — position and weather

sailwx.info

Track history (hours):
 
Tides and Currents Weather Stations Pressure Air Temp Water Temp Dewpoint Dewpoint Depression Visibility Wind Speed Wind Dir Waves Ship Positions

Sea Pearl

Last reported at 2018-Apr-06 08:25 UTC. Time now 2018-Apr-21 19:27 UTC.
Position N 01°15' E 104°06'.
Warning: this ship's position is 15 days out of date.

Length 332 m; draft 21.2 m.

Type: Tanker. MMSI: 241465000.

Date/timePositionNaut miles runAvg speedWind from/ knotsBaromVisibWave heightAir tempDewpointWater temp
2018-Apr-06 08:25N 01°15' E 104°06'511.0
2018-Apr-06 07:58N 01°14' E 104°01'3 7.3
2018-Apr-06 07:30N 01°14' E 103°58'2 3.2
2018-Apr-06 06:59N 01°13' E 103°56'3 5.2
2018-Apr-06 06:30N 01°13' E 103°54'4 8.3
2018-Apr-06 06:00N 01°11' E 103°50'4 8.6
2018-Apr-06 05:30N 01°09' E 103°46'4 7.8
2018-Apr-06 05:01N 01°06' E 103°44'5 9.8
2018-Apr-06 04:30N 01°04' E 103°40'510.5
2018-Apr-06 04:01N 01°05' E 103°35'611.3
2018-Apr-06 03:30N 01°08' E 103°30'511.0
2018-Apr-06 03:01N 01°11' E 103°25'712.4
2018-Apr-06 02:25N 01°16' E 103°19'4013.1
2018-Apr-05 23:22N 01°39' E 102°47'  
2018-Mar-29 22:49N 12°56' E 070°12'513.0
2018-Mar-29 22:28N 12°60' E 070°10'713.0
2018-Mar-29 21:54N 13°06' E 070°06'713.1
2018-Mar-29 21:21N 13°13' E 070°03'413.0
2018-Mar-29 21:00N 13°17' E 070°01'613.0
2018-Mar-29 20:30N 13°22' E 069°58'713.1
2018-Mar-29 20:00N 13°28' E 069°54'612.8
2018-Mar-29 19:30N 13°34' E 069°51'713.3
2018-Mar-29 19:00N 13°40' E 069°48'713.2
2018-Mar-29 18:26N 13°46' E 069°44'613.1
2018-Mar-29 18:00N 13°51' E 069°42'4713.2
2018-Mar-29 14:25N 14°33' E 069°19'1212.7
2018-Mar-29 13:30N 14°43' E 069°13'612.7
2018-Mar-29 13:00N 14°49' E 069°10'812.7
2018-Mar-29 12:22N 14°56' E 069°06'1212.9
2018-Mar-29 11:26N 15°07' E 069°00'712.9
2018-Mar-29 10:51N 15°13' E 068°57'412.9
2018-Mar-29 10:30N 15°17' E 068°55'713.0
2018-Mar-29 09:59N 15°23' E 068°51'713.0
2018-Mar-29 09:29N 15°29' E 068°48'612.9
2018-Mar-29 09:00N 15°34' E 068°45'713.0
2018-Mar-29 08:29N 15°40' E 068°42'612.9
2018-Mar-29 08:00N 15°46' E 068°39'5513.1
2018-Mar-29 03:49N 16°34' E 068°12'513.3
2018-Mar-29 03:29N 16°38' E 068°09'1013.3
2018-Mar-29 02:42N 16°47' E 068°04'313.4
2018-Mar-29 02:30N 16°49' E 068°03'1013.4
2018-Mar-29 01:47N 16°58' E 067°58'413.5
2018-Mar-29 01:29N 17°01' E 067°56'613.2
2018-Mar-29 01:00N 17°07' E 067°53'912.7
2018-Mar-29 00:18N 17°15' E 067°48'412.8
2018-Mar-29 00:00N 17°18' E 067°47'713.0
2018-Mar-28 23:29N 17°24' E 067°43'612.8
2018-Mar-28 23:00N 17°29' E 067°40'1012.9
2018-Mar-28 22:13N 17°38' E 067°35'312.9
2018-Mar-28 21:59N 17°41' E 067°34'1612.9
2018-Mar-28 20:44N 17°55' E 067°26'312.9
2018-Mar-28 20:30N 17°58' E 067°24'713.0
2018-Mar-28 19:59N 18°04' E 067°21'713.0
2018-Mar-28 19:24N 18°10' E 067°17'812.8
2018-Mar-28 18:46N 18°17' E 067°13'312.7
2018-Mar-28 18:30N 18°20' E 067°11'612.8
2018-Mar-28 18:00N 18°26' E 067°08'712.9
2018-Mar-28 17:27N 18°32' E 067°04'612.9
2018-Mar-28 16:59N 18°37' E 067°01'612.9
2018-Mar-28 16:30N 18°43' E 066°58'713.2
2018-Mar-28 15:58N 18°49' E 066°54'613.6
2018-Mar-28 15:30N 18°55' E 066°51'713.4
2018-Mar-28 14:59N 19°01' E 066°48'613.3
2018-Mar-28 14:30N 19°06' E 066°44'813.2
2018-Mar-28 13:52N 19°14' E 066°40'513.0
2018-Mar-28 13:30N 19°18' E 066°38'813.0
2018-Mar-28 12:54N 19°25' E 066°34'613.0
2018-Mar-28 12:28N 19°29' E 066°31'613.1
2018-Mar-28 12:00N 19°35' E 066°28'713.0
2018-Mar-28 11:30N 19°41' E 066°24'712.8
2018-Mar-28 10:58N 19°47' E 066°21'  
Track history (hours):
 
Tides and Currents Weather Stations Pressure Air Temp Water Temp Dewpoint Dewpoint Depression Visibility Wind Speed Wind Dir Waves Ship Positions

Sea Pearl

Last reported at 2018-Apr-06 08:25 UTC. Time now 2018-Apr-21 19:27 UTC.
Position N 01°15' E 104°06'.
Warning: this ship's position is 15 days out of date.

Length 332 m; draft 21.2 m.

Type: Tanker. MMSI: 241465000.

Date/timePositionNaut miles runAvg speedWind from/ knotsBaromVisibWave heightAir tempDewpointWater temp
2018-Apr-06 08:25N 01°15' E 104°06'511.0
2018-Apr-06 07:58N 01°14' E 104°01'3 7.3
2018-Apr-06 07:30N 01°14' E 103°58'2 3.2
2018-Apr-06 06:59N 01°13' E 103°56'3 5.2
2018-Apr-06 06:30N 01°13' E 103°54'4 8.3
2018-Apr-06 06:00N 01°11' E 103°50'4 8.6
2018-Apr-06 05:30N 01°09' E 103°46'4 7.8
2018-Apr-06 05:01N 01°06' E 103°44'5 9.8
2018-Apr-06 04:30N 01°04' E 103°40'510.5
2018-Apr-06 04:01N 01°05' E 103°35'611.3
2018-Apr-06 03:30N 01°08' E 103°30'511.0
2018-Apr-06 03:01N 01°11' E 103°25'712.4
2018-Apr-06 02:25N 01°16' E 103°19'4013.1
2018-Apr-05 23:22N 01°39' E 102°47'  
2018-Mar-29 22:49N 12°56' E 070°12'513.0
2018-Mar-29 22:28N 12°60' E 070°10'713.0
2018-Mar-29 21:54N 13°06' E 070°06'713.1
2018-Mar-29 21:21N 13°13' E 070°03'413.0
2018-Mar-29 21:00N 13°17' E 070°01'613.0
2018-Mar-29 20:30N 13°22' E 069°58'713.1
2018-Mar-29 20:00N 13°28' E 069°54'612.8
2018-Mar-29 19:30N 13°34' E 069°51'713.3
2018-Mar-29 19:00N 13°40' E 069°48'713.2
2018-Mar-29 18:26N 13°46' E 069°44'613.1
2018-Mar-29 18:00N 13°51' E 069°42'4713.2
2018-Mar-29 14:25N 14°33' E 069°19'1212.7
2018-Mar-29 13:30N 14°43' E 069°13'612.7
2018-Mar-29 13:00N 14°49' E 069°10'812.7
2018-Mar-29 12:22N 14°56' E 069°06'1212.9
2018-Mar-29 11:26N 15°07' E 069°00'712.9
2018-Mar-29 10:51N 15°13' E 068°57'412.9
2018-Mar-29 10:30N 15°17' E 068°55'713.0
2018-Mar-29 09:59N 15°23' E 068°51'713.0
2018-Mar-29 09:29N 15°29' E 068°48'612.9
2018-Mar-29 09:00N 15°34' E 068°45'713.0
2018-Mar-29 08:29N 15°40' E 068°42'612.9
2018-Mar-29 08:00N 15°46' E 068°39'5513.1
2018-Mar-29 03:49N 16°34' E 068°12'513.3
2018-Mar-29 03:29N 16°38' E 068°09'1013.3
2018-Mar-29 02:42N 16°47' E 068°04'313.4
2018-Mar-29 02:30N 16°49' E 068°03'1013.4
2018-Mar-29 01:47N 16°58' E 067°58'413.5
2018-Mar-29 01:29N 17°01' E 067°56'613.2
2018-Mar-29 01:00N 17°07' E 067°53'912.7
2018-Mar-29 00:18N 17°15' E 067°48'412.8
2018-Mar-29 00:00N 17°18' E 067°47'713.0
2018-Mar-28 23:29N 17°24' E 067°43'612.8
2018-Mar-28 23:00N 17°29' E 067°40'1012.9
2018-Mar-28 22:13N 17°38' E 067°35'312.9
2018-Mar-28 21:59N 17°41' E 067°34'1612.9
2018-Mar-28 20:44N 17°55' E 067°26'312.9
2018-Mar-28 20:30N 17°58' E 067°24'713.0
2018-Mar-28 19:59N 18°04' E 067°21'713.0
2018-Mar-28 19:24N 18°10' E 067°17'812.8
2018-Mar-28 18:46N 18°17' E 067°13'312.7
2018-Mar-28 18:30N 18°20' E 067°11'612.8
2018-Mar-28 18:00N 18°26' E 067°08'712.9
2018-Mar-28 17:27N 18°32' E 067°04'612.9
2018-Mar-28 16:59N 18°37' E 067°01'612.9
2018-Mar-28 16:30N 18°43' E 066°58'713.2
2018-Mar-28 15:58N 18°49' E 066°54'613.6
2018-Mar-28 15:30N 18°55' E 066°51'713.4
2018-Mar-28 14:59N 19°01' E 066°48'613.3
2018-Mar-28 14:30N 19°06' E 066°44'813.2
2018-Mar-28 13:52N 19°14' E 066°40'513.0
2018-Mar-28 13:30N 19°18' E 066°38'813.0
2018-Mar-28 12:54N 19°25' E 066°34'613.0
2018-Mar-28 12:28N 19°29' E 066°31'613.1
2018-Mar-28 12:00N 19°35' E 066°28'713.0
2018-Mar-28 11:30N 19°41' E 066°24'712.8
2018-Mar-28 10:58N 19°47' E 066°21'  

Dump ship's entire track history